This is the latest recevied weather packets stored in our database for station/object EA4IAJ-12. If no packets are shown the sender has not sent any weather packets the latest 10 day(s).
| Time | Temp. | Humidity | Pressure | Rain* | Wind** | Luminosity | Snow |
|---|---|---|---|---|---|---|---|
| 1777696217 | 15° C | 100% | 1007.2 hPa | - | - | - | - |
| 1777695317 | 15° C | 100% | 1006.2 hPa | - | - | - | - |
| 1777694416 | 15° C | 100% | 1005.6 hPa | - | - | - | - |
| 1777693527 | 15° C | 100% | 1005.5 hPa | - | - | - | - |
| 1777692627 | 15° C | 100% | 1004.5 hPa | - | - | - | - |
| 1777691726 | 14.44° C | 100% | 1003.3 hPa | - | - | - | - |
| 1777690826 | 14.44° C | 100% | 1002.8 hPa | - | - | - | - |
| 1777689925 | 15° C | 100% | 1003.3 hPa | - | - | - | - |
| 1777689025 | 14.44° C | 100% | 1002.2 hPa | - | - | - | - |
| 1777688124 | 14.44° C | 100% | 1002.1 hPa | - | - | - | - |
| 1777687224 | 15° C | 99% | 1002.3 hPa | - | - | - | - |
| 1777686323 | 15° C | 96% | 1003.4 hPa | - | - | - | - |
| 1777685423 | 15.56° C | 92% | 1004.6 hPa | - | - | - | - |
| 1777684522 | 15.56° C | 88% | 1003.7 hPa | - | - | - | - |
| 1777683622 | 15.56° C | 84% | 1004.8 hPa | - | - | - | - |
| 1777682721 | 16.11° C | 79% | 1005.3 hPa | - | - | - | - |
| 1777681821 | 16.11° C | 74% | 1004.6 hPa | - | - | - | - |
| 1777680920 | 16.11° C | 69% | 1004.6 hPa | - | - | - | - |
| 1777680020 | 16.67° C | 65% | 1006 hPa | - | - | - | - |
| 1777679119 | 16.67° C | 61% | 1006.4 hPa | - | - | - | - |
| 1777678219 | 16.67° C | 57% | 1006.7 hPa | - | - | - | - |
| 1777677318 | 16.67° C | 53% | 1006 hPa | - | - | - | - |
| 1777676418 | 17.22° C | 50% | 1007.4 hPa | - | - | - | - |
| 1777675517 | 17.22° C | 48% | 1008 hPa | - | - | - | - |
| 1777674617 | 17.78° C | 46% | 1009.8 hPa | - | - | - | - |
* Rain since midnight (hover to see other rain measurements)
** Current wind speed in m/s (hover to see current wind gust speed)